MSC Maria Saveria — 3FLE8 — position and weather

sailwx.info

Track history (hours):
 
Tides and Currents Weather Stations Pressure Air Temp Water Temp Dewpoint Dewpoint Depression Visibility Wind Speed Wind Dir Waves Ship Positions

MSC Maria Saveria

Last reported at 2017-Jul-28 16:31 UTC. Time now 2017-Jul-28 16:42 UTC.
Position N 52°04' E 003°48'.

Length 366 m; draft 13.8 m.

Type: Ship (hazmat cat A). MMSI: 372400000.

Date/timePositionNaut miles runAvg speedWind from/ knotsBaromVisibWave heightAir tempDewpointWater temp
2017-Jul-28 16:31N 52°04' E 003°48'5 9.3
2017-Jul-28 16:00N 52°02' E 003°55'510.9
2017-Jul-28 15:30N 51°59' E 004°03'2 4.6
2017-Jul-28 15:00N 51°57' E 004°05'1 1.6
2017-Jul-28 14:30N 51°58' E 004°04'0 0.1
2017-Jul-28 14:00N 51°58' E 004°04'0 0.0
2017-Jul-28 13:30N 51°58' E 004°04'0 0.0
2017-Jul-28 13:00N 51°58' E 004°04'0 0.0
2017-Jul-28 12:30N 51°58' E 004°04'0 0.0
2017-Jul-28 12:00N 51°58' E 004°04'0 0.0
2017-Jul-28 11:30N 51°58' E 004°04'0 0.0
2017-Jul-28 11:00N 51°58' E 004°04'0 0.0
2017-Jul-28 10:30N 51°58' E 004°04'0 0.0
2017-Jul-28 10:00N 51°58' E 004°04'0 0.0
2017-Jul-28 09:30N 51°58' E 004°04'0 0.0
2017-Jul-28 09:00N 51°58' E 004°04'0 0.0
2017-Jul-28 08:30N 51°58' E 004°04'0 0.0
2017-Jul-28 08:00N 51°58' E 004°04'0 0.0
2017-Jul-28 07:30N 51°58' E 004°04'0 0.0
2017-Jul-28 07:00N 51°58' E 004°04'0 0.0
2017-Jul-28 06:30N 51°58' E 004°04'0 0.0
2017-Jul-28 06:00N 51°58' E 004°04'0 0.0
2017-Jul-28 05:30N 51°58' E 004°04'0 0.0
2017-Jul-28 05:00N 51°58' E 004°04'0 0.0
2017-Jul-28 04:30N 51°58' E 004°04'0 0.0
2017-Jul-28 04:00N 51°58' E 004°04'0 0.0
2017-Jul-28 03:30N 51°58' E 004°04'0 0.0
2017-Jul-28 03:00N 51°58' E 004°04'0 0.0
2017-Jul-28 02:30N 51°58' E 004°04'0 0.0
2017-Jul-28 02:00N 51°58' E 004°04'0 0.0
2017-Jul-28 01:30N 51°58' E 004°04'0 0.0
2017-Jul-28 01:00N 51°58' E 004°04'0 0.0
2017-Jul-28 00:30N 51°58' E 004°04'0 0.0
2017-Jul-28 00:00N 51°58' E 004°04'0 0.0
2017-Jul-27 23:30N 51°58' E 004°04'0 0.0
2017-Jul-27 23:00N 51°58' E 004°04'0 0.0
2017-Jul-27 22:30N 51°58' E 004°04'0 0.0
2017-Jul-27 22:00N 51°58' E 004°04'0 0.0
2017-Jul-27 21:30N 51°58' E 004°04'0 0.0
2017-Jul-27 21:00N 51°58' E 004°04'0 0.0
2017-Jul-27 20:30N 51°58' E 004°04'0 0.0
2017-Jul-27 20:00N 51°58' E 004°04'0 0.0
2017-Jul-27 19:30N 51°58' E 004°04'0 0.0
2017-Jul-27 19:00N 51°58' E 004°04'0 0.0
2017-Jul-27 18:30N 51°58' E 004°04'0 0.0
2017-Jul-27 18:00N 51°58' E 004°04'0 0.0
2017-Jul-27 17:30N 51°58' E 004°04'0 0.0
2017-Jul-27 17:00N 51°58' E 004°04'0 0.0
2017-Jul-27 16:30N 51°58' E 004°04'0 0.0
2017-Jul-27 16:00N 51°58' E 004°04'0 0.0
2017-Jul-27 15:30N 51°58' E 004°04'0 0.0
2017-Jul-27 15:00N 51°58' E 004°04'0 0.0
2017-Jul-27 14:00N 51°58' E 004°04'0 0.0
2017-Jul-27 13:30N 51°58' E 004°04'0 0.0
2017-Jul-27 13:00N 51°58' E 004°04'0 0.0
2017-Jul-27 12:30N 51°58' E 004°04'0 0.0
2017-Jul-27 12:00N 51°58' E 004°04'0 0.0
2017-Jul-27 11:30N 51°58' E 004°04'0 0.3
2017-Jul-27 11:00N 51°58' E 004°04'1 2.6
2017-Jul-27 10:30N 51°59' E 004°04'5 9.9
2017-Jul-27 10:00N 52°00' E 003°57'510.3
2017-Jul-27 09:30N 52°00' E 003°48'2 3.5
2017-Jul-27 09:00N 52°00' E 003°45'3 5.1
2017-Jul-27 08:30N 51°59' E 003°42'612.4
2017-Jul-27 08:00N 51°57' E 003°32'1224.2
2017-Jul-27 07:30N 51°49' E 003°17'7 9.0
2017-Jul-27 06:46N 51°43' E 003°12'517.6
2017-Jul-27 06:30N 51°38' E 003°11'816.5
2017-Jul-27 06:01N 51°31' E 003°06'713.8
2017-Jul-27 05:30N 51°25' E 003°00'815.3
2017-Jul-27 05:00N 51°24' E 003°13'815.3
2017-Jul-27 04:31N 51°25' E 003°25'612.8
2017-Jul-27 04:00N 51°25' E 003°35'4 7.9
2017-Jul-27 03:30N 51°26' E 003°41'612.5
2017-Jul-27 03:01N 51°21' E 003°48'611.5
2017-Jul-27 02:30N 51°23' E 003°57'4 7.9
2017-Jul-27 02:00N 51°25' E 004°02'5 9.9
2017-Jul-27 01:30N 51°23' E 004°09'4 8.3
2017-Jul-27 01:00N 51°21' E 004°15'3 6.0
2017-Jul-27 00:30N 51°18' E 004°16'0 0.6
2017-Jul-27 00:00N 51°18' E 004°16'0 0.0
2017-Jul-26 23:31N 51°18' E 004°16'0 0.0
2017-Jul-26 23:00N 51°18' E 004°16'0 0.0
2017-Jul-26 22:30N 51°18' E 004°16'0 0.0
2017-Jul-26 22:00N 51°18' E 004°16'0 0.0
2017-Jul-26 21:30N 51°18' E 004°16'0 0.0
2017-Jul-26 21:00N 51°18' E 004°16'0 0.0
2017-Jul-26 20:31N 51°18' E 004°16'0 0.0
2017-Jul-26 20:01N 51°18' E 004°16'0 0.0
2017-Jul-26 19:30N 51°18' E 004°16'0 0.0
2017-Jul-26 19:00N 51°18' E 004°16'0 0.0
2017-Jul-26 18:30N 51°18' E 004°16'0 0.0
2017-Jul-26 18:00N 51°18' E 004°16'0 0.0
2017-Jul-26 17:30N 51°18' E 004°16'0 0.0
2017-Jul-26 17:01N 51°18' E 004°16'0 0.0
2017-Jul-26 16:30N 51°18' E 004°16'0 0.0
2017-Jul-26 16:00N 51°18' E 004°16'0 0.0
2017-Jul-26 15:31N 51°18' E 004°16'0 0.0
2017-Jul-26 15:00N 51°18' E 004°16'0 0.0
2017-Jul-26 14:01N 51°18' E 004°16'0 0.0
2017-Jul-26 13:30N 51°18' E 004°16'0 0.0
2017-Jul-26 13:00N 51°18' E 004°16'0 0.0
2017-Jul-26 12:30N 51°18' E 004°16'0 0.0
2017-Jul-26 12:01N 51°18' E 004°16'0 0.0
2017-Jul-26 11:31N 51°18' E 004°16'0 0.0
2017-Jul-26 11:01N 51°18' E 004°16'0 0.0
2017-Jul-26 10:31N 51°18' E 004°16'0 0.0
2017-Jul-26 10:01N 51°18' E 004°16'0 0.0
2017-Jul-26 09:31N 51°18' E 004°16'0 0.0
2017-Jul-26 09:00N 51°18' E 004°16'0 0.0
2017-Jul-26 08:30N 51°18' E 004°16'0 0.0
2017-Jul-26 08:00N 51°18' E 004°16'0 0.0
2017-Jul-26 07:30N 51°18' E 004°16'0 0.0
2017-Jul-26 07:00N 51°18' E 004°16'0 0.0
2017-Jul-26 06:31N 51°18' E 004°16'0 0.0
2017-Jul-26 06:00N 51°18' E 004°16'0 0.0
2017-Jul-26 05:30N 51°18' E 004°16'0 0.0
2017-Jul-26 05:00N 51°18' E 004°16'0 0.0
2017-Jul-26 04:30N 51°18' E 004°16'0 0.0
2017-Jul-26 04:00N 51°18' E 004°16'0 0.0
2017-Jul-26 03:31N 51°18' E 004°16'0 0.0
2017-Jul-26 03:01N 51°18' E 004°16'0 0.0
2017-Jul-26 02:30N 51°18' E 004°16'0 0.0
2017-Jul-26 02:01N 51°18' E 004°16'0 0.0
2017-Jul-26 01:31N 51°18' E 004°16'0 0.0
2017-Jul-26 01:01N 51°18' E 004°16'0 0.0
2017-Jul-26 00:30N 51°18' E 004°16'0 0.0
2017-Jul-26 00:00N 51°18' E 004°16'0 0.0
2017-Jul-25 23:31N 51°18' E 004°16'0 0.0
2017-Jul-25 23:01N 51°18' E 004°16'0 0.0
2017-Jul-25 22:30N 51°18' E 004°16'0 0.0
2017-Jul-25 22:01N 51°18' E 004°16'0 0.0
2017-Jul-25 21:30N 51°18' E 004°16'0 0.0
2017-Jul-25 21:00N 51°18' E 004°16'0 0.0
2017-Jul-25 20:31N 51°18' E 004°16'0 0.0
2017-Jul-25 20:00N 51°18' E 004°16'0 0.0
2017-Jul-25 19:30N 51°18' E 004°16'0 0.0
2017-Jul-25 19:00N 51°18' E 004°16'0 0.0
2017-Jul-25 18:30N 51°18' E 004°16'0 0.0
2017-Jul-25 18:00N 51°18' E 004°16'0 0.0
2017-Jul-25 17:31N 51°18' E 004°16'0 0.0
2017-Jul-25 17:01N 51°18' E 004°16'0 0.0
2017-Jul-25 16:30N 51°18' E 004°16'0 0.0
2017-Jul-25 16:00N 51°18' E 004°16'0 0.0
2017-Jul-25 15:30N 51°18' E 004°16'0 0.0
2017-Jul-25 15:01N 51°18' E 004°16'0 0.0
2017-Jul-25 14:01N 51°18' E 004°16'0 0.0
2017-Jul-25 13:30N 51°18' E 004°16'0 0.0
2017-Jul-25 13:00N 51°18' E 004°16'0 0.0
2017-Jul-25 12:30N 51°18' E 004°16'0 0.0
2017-Jul-25 12:00N 51°18' E 004°16'0 0.0
2017-Jul-25 11:31N 51°18' E 004°16'0 0.0
2017-Jul-25 11:00N 51°18' E 004°16'0 0.0
2017-Jul-25 10:31N 51°18' E 004°16'0 0.0
2017-Jul-25 10:00N 51°18' E 004°16'0 0.0
2017-Jul-25 09:30N 51°18' E 004°16'0 0.0
2017-Jul-25 09:01N 51°18' E 004°16'0 0.0
2017-Jul-25 08:31N 51°18' E 004°16'0 0.0
2017-Jul-25 08:01N 51°18' E 004°16'0 0.0
2017-Jul-25 07:30N 51°18' E 004°16'0 0.0
2017-Jul-25 07:01N 51°18' E 004°16'0 0.0
2017-Jul-25 06:31N 51°18' E 004°16'0 0.0
2017-Jul-25 06:00N 51°18' E 004°16'0 0.0
2017-Jul-25 05:31N 51°18' E 004°16'0 0.0
2017-Jul-25 05:01N 51°18' E 004°16'0 0.0
2017-Jul-25 04:31N 51°18' E 004°16'0 0.0
2017-Jul-25 04:01N 51°18' E 004°16'0 0.0
2017-Jul-25 03:30N 51°18' E 004°16'0 0.0
2017-Jul-25 03:01N 51°18' E 004°16'0 0.0
2017-Jul-25 02:30N 51°18' E 004°16'0 0.0
2017-Jul-25 02:01N 51°18' E 004°16'0 0.0
2017-Jul-25 01:31N 51°18' E 004°16'0 0.0
2017-Jul-25 01:01N 51°18' E 004°16'0 0.0
2017-Jul-25 00:31N 51°18' E 004°16'0 0.0
2017-Jul-25 00:01N 51°18' E 004°16'0 0.0
2017-Jul-24 23:30N 51°18' E 004°16'0 0.8
2017-Jul-24 23:01N 51°18' E 004°16'2 3.9
2017-Jul-24 22:31N 51°20' E 004°16'5 9.7
2017-Jul-24 22:00N 51°24' E 004°12'611.3
2017-Jul-24 21:30N 51°23' E 004°03'4 7.2
2017-Jul-24 21:01N 51°24' E 003°58'611.5
2017-Jul-24 20:30N 51°21' E 003°51'612.5
2017-Jul-24 20:00N 51°24' E 003°43'510.1
2017-Jul-24 19:30N 51°26' E 003°35'4 8.7
2017-Jul-24 19:00N 51°25' E 003°28'713.8
2017-Jul-24 18:30N 51°24' E 003°17'714.2
2017-Jul-24 18:01N 51°24' E 003°05'5 9.7
2017-Jul-24 17:30N 51°28' E 003°01'918.5
2017-Jul-24 17:00N 51°35' E 003°10'917.5
2017-Jul-24 16:30N 51°44' E 003°14'712.9
2017-Jul-24 16:00N 51°50' E 003°17'30 8.0
2017-Jul-24 12:18N 52°18' E 003°30'0 1.3
2017-Jul-24 12:00N 52°19' E 003°30'1 1.4
2017-Jul-24 11:30N 52°19' E 003°31'1 1.6
2017-Jul-24 11:00N 52°20' E 003°32'1 1.9
2017-Jul-24 10:27N 52°21' E 003°33'1 2.0
2017-Jul-24 09:48N 52°22' E 003°34'4 0.4
2017-Jul-23 23:27N 52°20' E 003°27'7 8.4
2017-Jul-23 22:36N 52°28' E 003°28'110.9
2017-Jul-23 22:30N 52°29' E 003°28'610.9
2017-Jul-23 21:59N 52°34' E 003°30'510.3
2017-Jul-23 21:30N 52°39' E 003°33'510.7
2017-Jul-23 21:00N 52°43' E 003°38'510.5
2017-Jul-23 20:31N 52°47' E 003°44'510.3
2017-Jul-23 20:01N 52°51' E 003°49'5 9.8
2017-Jul-23 19:30N 52°55' E 003°55'510.0
2017-Jul-23 19:01N 52°58' E 004°01'510.0
2017-Jul-23 18:30N 53°01' E 004°07'5 9.6
2017-Jul-23 18:01N 53°05' E 004°13'5 9.3
2017-Jul-23 17:30N 53°08' E 004°19'4 8.5
2017-Jul-23 17:00N 53°10' E 004°24'4 8.3
2017-Jul-23 16:30N 53°14' E 004°27'4 8.2
2017-Jul-23 15:58N 53°18' E 004°30'14 8.9
2017-Jul-23 14:25N 53°30' E 004°43'9111.6
2017-Jul-23 06:30N 53°58' E 007°10'611.1
2017-Jul-23 05:55N 53°59' E 007°21'511.7
2017-Jul-23 05:31N 54°01' E 007°29'612.6
2017-Jul-23 05:00N 54°02' E 007°40'713.6
2017-Jul-23 04:30N 54°02' E 007°51'714.5
2017-Jul-23 04:00N 54°01' E 008°03'713.5
2017-Jul-23 03:30N 54°00' E 008°15'1019.1
2017-Jul-23 03:00N 53°58' E 008°31'817.2
2017-Jul-23 02:30N 53°53' E 008°42'713.4
2017-Jul-23 02:00N 53°50' E 008°53'815.7
2017-Jul-23 01:31N 53°53' E 009°05'611.0
2017-Jul-23 01:00N 53°53' E 009°15'713.4
2017-Jul-23 00:30N 53°48' E 009°23'611.4
2017-Jul-23 00:01N 53°43' E 009°28'510.7
2017-Jul-22 23:30N 53°38' E 009°32'510.3
2017-Jul-22 23:01N 53°35' E 009°38'4 7.5
2017-Jul-22 22:30N 53°34' E 009°44'3 5.3
2017-Jul-22 22:00N 53°33' E 009°48'3 5.6
2017-Jul-22 21:30N 53°33' E 009°53'1 1.3
2017-Jul-22 21:00N 53°32' E 009°54'1 1.8
2017-Jul-22 20:30N 53°32' E 009°55'0 0.0
2017-Jul-22 20:00N 53°32' E 009°55'0 0.0
2017-Jul-22 19:30N 53°32' E 009°55'0 0.0
2017-Jul-22 19:00N 53°32' E 009°55'0 0.0
2017-Jul-22 18:30N 53°32' E 009°55'0 0.0
2017-Jul-22 18:01N 53°32' E 009°55'0 0.0
2017-Jul-22 17:30N 53°32' E 009°55'0 0.0
2017-Jul-22 17:00N 53°32' E 009°55'0 0.0
2017-Jul-22 16:30N 53°32' E 009°55'0 0.0
2017-Jul-22 16:01N 53°32' E 009°55'0 0.0
2017-Jul-22 15:31N 53°32' E 009°55'0 0.0
2017-Jul-22 15:00N 53°32' E 009°55'0 0.0
2017-Jul-22 14:00N 53°32' E 009°55'0 0.0
2017-Jul-22 13:30N 53°32' E 009°55'0 0.0
2017-Jul-22 13:00N 53°32' E 009°55'0 0.0
2017-Jul-22 12:30N 53°32' E 009°55'0 0.0
2017-Jul-22 12:00N 53°32' E 009°55'0 0.0
2017-Jul-22 11:30N 53°32' E 009°55'0 0.0
2017-Jul-22 11:01N 53°32' E 009°55'0 0.0
2017-Jul-22 10:31N 53°32' E 009°55'0 0.0
2017-Jul-22 10:00N 53°32' E 009°55'0 0.0
2017-Jul-22 09:30N 53°32' E 009°55'0 0.0
2017-Jul-22 09:00N 53°32' E 009°55'0 0.0
2017-Jul-22 08:30N 53°32' E 009°55'0 0.0
2017-Jul-22 08:00N 53°32' E 009°55'0 0.0
2017-Jul-22 07:30N 53°32' E 009°55'0 0.0
2017-Jul-22 07:00N 53°32' E 009°55'0 0.0
2017-Jul-22 06:30N 53°32' E 009°55'0 0.0
2017-Jul-22 06:00N 53°32' E 009°55'0 0.0
2017-Jul-22 05:31N 53°32' E 009°55'0 0.0
2017-Jul-22 05:00N 53°32' E 009°55'0 0.0
2017-Jul-22 04:31N 53°32' E 009°55'0 0.0
2017-Jul-22 04:00N 53°32' E 009°55'0 0.0
2017-Jul-22 03:31N 53°32' E 009°55'0 0.0
2017-Jul-22 03:00N 53°32' E 009°55'0 0.0
2017-Jul-22 02:30N 53°32' E 009°55'0 0.0
2017-Jul-22 02:00N 53°32' E 009°55'0 0.0
2017-Jul-22 01:30N 53°32' E 009°55'0 0.0
2017-Jul-22 01:01N 53°32' E 009°55'0 0.0
2017-Jul-22 00:30N 53°32' E 009°55'0 0.0
2017-Jul-22 00:00N 53°32' E 009°55'0 0.0
2017-Jul-21 23:30N 53°32' E 009°55'0 0.0
2017-Jul-21 23:00N 53°32' E 009°55'0 0.0
2017-Jul-21 22:30N 53°32' E 009°55'0 0.0
2017-Jul-21 22:00N 53°32' E 009°55'0 0.0
2017-Jul-21 21:31N 53°32' E 009°55'0 0.0
2017-Jul-21 21:00N 53°32' E 009°55'0 0.0
2017-Jul-21 20:30N 53°32' E 009°55'0 0.0
2017-Jul-21 20:01N 53°32' E 009°55'0 0.0
2017-Jul-21 19:30N 53°32' E 009°55'0 0.0
2017-Jul-21 19:01N 53°32' E 009°55'0 0.0
2017-Jul-21 18:31N 53°32' E 009°55'0 0.0
2017-Jul-21 18:00N 53°32' E 009°55'0 0.0
2017-Jul-21 17:30N 53°32' E 009°55'0 0.0
2017-Jul-21 17:01N 53°32' E 009°55'0 0.0
2017-Jul-21 16:30N 53°32' E 009°55'0 0.0
2017-Jul-21 16:00N 53°32' E 009°55'0 0.0
2017-Jul-21 15:30N 53°32' E 009°55'0 0.0
2017-Jul-21 15:00N 53°32' E 009°55'0 0.0
2017-Jul-21 14:30N 53°32' E 009°55'0 0.0
2017-Jul-21 14:00N 53°32' E 009°55'0 0.0
2017-Jul-21 13:30N 53°32' E 009°55'1 1.7
2017-Jul-21 13:00N 53°32' E 009°54'2 4.8
2017-Jul-21 12:31N 53°33' E 009°50'5 9.8
2017-Jul-21 12:00N 53°34' E 009°42'611.3
2017-Jul-21 11:30N 53°37' E 009°34'612.4
2017-Jul-21 11:00N 53°42' E 009°29'714.5
2017-Jul-21 10:31N 53°48' E 009°22'815.8
2017-Jul-21 10:00N 53°53' E 009°12'611.5
2017-Jul-21 09:30N 53°52' E 009°02'917.6
2017-Jul-21 09:00N 53°50' E 008°47'815.5
2017-Jul-21 08:30N 53°56' E 008°39'917.6
2017-Jul-21 08:00N 53°59' E 008°25'1017.1
2017-Jul-21 07:24N 53°59' E 008°07'614.6
2017-Jul-21 07:00N 53°58' E 007°57'510.0
2017-Jul-21 06:30N 53°57' E 007°49'610.7
2017-Jul-21 05:59N 53°56' E 007°40'712.2
2017-Jul-21 05:23N 53°54' E 007°27'813.6
2017-Jul-21 04:47N 53°53' E 007°14'7413.7
2017-Jul-20 23:23N 53°32' E 005°14'513.3
2017-Jul-20 23:00N 53°30' E 005°06'713.3
2017-Jul-20 22:30N 53°28' E 004°56'2112.5
2017-Jul-20 20:49N 53°13' E 004°32'413.3
2017-Jul-20 20:30N 53°09' E 004°29'713.8
2017-Jul-20 20:00N 53°03' E 004°23'713.6
2017-Jul-20 19:30N 52°56' E 004°19'713.6
2017-Jul-20 18:58N 52°50' E 004°14'613.5
2017-Jul-20 18:30N 52°45' E 004°08'612.0
2017-Jul-20 18:00N 52°41' E 004°01'711.9
2017-Jul-20 17:26N 52°36' E 003°53'511.9
2017-Jul-20 17:00N 52°32' E 003°47'612.1
2017-Jul-20 16:29N 52°28' E 003°40'6612.7
2017-Jul-20 11:17N 51°53' E 002°08'414.3
2017-Jul-20 11:00N 51°51' E 002°02'815.8
2017-Jul-20 10:30N 51°49' E 001°50'713.5
2017-Jul-20 10:00N 51°51' E 001°40'4 8.3
2017-Jul-20 09:30N 51°52' E 001°34'611.7
2017-Jul-20 09:00N 51°56' E 001°26'510.0
2017-Jul-20 08:30N 51°57' E 001°18'1 2.2
2017-Jul-20 08:00N 51°58' E 001°17'0 0.0
2017-Jul-20 07:30N 51°58' E 001°17'0 0.0
2017-Jul-20 07:00N 51°58' E 001°17'0 0.0
2017-Jul-20 06:30N 51°58' E 001°17'0 0.0
2017-Jul-20 06:00N 51°58' E 001°17'0 0.0
2017-Jul-20 05:30N 51°58' E 001°17'0 0.0
2017-Jul-20 05:00N 51°58' E 001°17'0 0.0
2017-Jul-20 04:30N 51°58' E 001°17'0 0.0
2017-Jul-20 04:00N 51°58' E 001°17'0 0.0
2017-Jul-20 03:30N 51°58' E 001°17'0 0.0
2017-Jul-20 03:00N 51°58' E 001°17'0 0.0
2017-Jul-20 02:30N 51°58' E 001°17'0 0.0
2017-Jul-20 02:00N 51°58' E 001°17'0 0.0
2017-Jul-20 01:30N 51°58' E 001°17'0 0.0
2017-Jul-20 01:00N 51°58' E 001°17'0 0.0
2017-Jul-20 00:30N 51°58' E 001°17'0 0.0
2017-Jul-20 00:00N 51°58' E 001°17'0 0.0
2017-Jul-19 23:30N 51°58' E 001°17'0 0.0
2017-Jul-19 23:00N 51°58' E 001°17'0 0.0
2017-Jul-19 22:30N 51°58' E 001°17'0 0.0
2017-Jul-19 22:00N 51°58' E 001°17'0 0.0
2017-Jul-19 21:30N 51°58' E 001°17'0 0.0
2017-Jul-19 21:00N 51°58' E 001°17'0 0.0
2017-Jul-19 20:30N 51°58' E 001°17'0 0.0
2017-Jul-19 20:00N 51°58' E 001°17'0 0.0
2017-Jul-19 19:30N 51°58' E 001°17'0 0.0
2017-Jul-19 19:00N 51°58' E 001°17'0 0.0
2017-Jul-19 18:30N 51°58' E 001°17'0 0.0
2017-Jul-19 18:00N 51°58' E 001°17'0 0.0
2017-Jul-19 17:30N 51°58' E 001°17'0 0.0
2017-Jul-19 17:00N 51°58' E 001°17'1 1.0
2017-Jul-19 16:30N 51°57' E 001°18'1 2.2
2017-Jul-19 16:00N 51°56' E 001°19'5 9.2
2017-Jul-19 15:30N 51°56' E 001°26'510.6
2017-Jul-19 15:00N 51°53' E 001°34'5 9.2
2017-Jul-19 14:30N 51°52' E 001°40'4 8.5
2017-Jul-19 14:00N 51°52' E 001°47'0 0.5
2017-Jul-19 13:29N 51°52' E 001°47'2 5.0
2017-Jul-19 13:00N 51°50' E 001°47'4 7.6
2017-Jul-19 12:30N 51°46' E 001°48'4 7.8
2017-Jul-19 12:00N 51°42' E 001°49'5 9.8
2017-Jul-19 11:30N 51°37' E 001°50'611.8
2017-Jul-19 11:00N 51°32' E 001°52'713.4
2017-Jul-19 10:30N 51°27' E 002°00'713.2
2017-Jul-19 10:00N 51°21' E 001°59'919.0
2017-Jul-19 09:30N 51°14' E 001°49'1019.8
2017-Jul-19 09:00N 51°05' E 001°40'1020.4
2017-Jul-19 08:30N 50°58' E 001°29'1020.1
2017-Jul-19 08:00N 50°48' E 001°24'1019.1
2017-Jul-19 07:30N 50°40' E 001°15'1020.0
2017-Jul-19 07:00N 50°33' E 001°04'1119.7
2017-Jul-19 06:28N 50°29' E 000°49'1019.9
2017-Jul-19 05:59N 50°26' E 000°35'1019.9
2017-Jul-19 05:30N 50°23' E 000°21'1020.2
2017-Jul-19 05:00N 50°19' E 000°06'1020.8
2017-Jul-19 04:30N 50°17' W 000°10'1020.6
2017-Jul-19 04:00N 50°16' W 000°26'1121.1
2017-Jul-19 03:30N 50°13' W 000°42'1121.0
2017-Jul-19 03:00N 50°10' W 000°58'1121.0
2017-Jul-19 02:29N 50°08' W 001°15'1020.8
2017-Jul-19 02:01N 50°05' W 001°29'1020.3
2017-Jul-19 01:31N 50°02' W 001°44'1019.9
2017-Jul-19 01:00N 49°59' W 001°59'1019.1
2017-Jul-19 00:29N 49°57' W 002°14'918.6
2017-Jul-19 00:00N 49°55' W 002°28'918.2
2017-Jul-18 23:30N 49°52' W 002°41'918.1
2017-Jul-18 23:00N 49°49' W 002°55'917.6
2017-Jul-18 22:30N 49°45' W 003°07'917.5
2017-Jul-18 22:00N 49°41' W 003°18'918.0
2017-Jul-18 21:30N 49°36' W 003°30'918.3
2017-Jul-18 21:00N 49°32' W 003°43'918.5
2017-Jul-18 20:30N 49°27' W 003°55'918.3
2017-Jul-18 20:00N 49°22' W 004°07'918.1
2017-Jul-18 19:30N 49°18' W 004°19'918.1
2017-Jul-18 19:00N 49°13' W 004°31'918.4
2017-Jul-18 18:30N 49°08' W 004°43'918.2
2017-Jul-18 18:00N 49°03' W 004°54'918.0
2017-Jul-18 17:30N 48°58' W 005°06'917.9
2017-Jul-18 17:00N 48°53' W 005°17'  
Track history (hours):
 
Tides and Currents Weather Stations Pressure Air Temp Water Temp Dewpoint Dewpoint Depression Visibility Wind Speed Wind Dir Waves Ship Positions

MSC Maria Saveria

Last reported at 2017-Jul-28 16:31 UTC. Time now 2017-Jul-28 16:42 UTC.
Position N 52°04' E 003°48'.

Length 366 m; draft 13.8 m.

Type: Ship (hazmat cat A). MMSI: 372400000.

Date/timePositionNaut miles runAvg speedWind from/ knotsBaromVisibWave heightAir tempDewpointWater temp
2017-Jul-28 16:31N 52°04' E 003°48'5 9.3
2017-Jul-28 16:00N 52°02' E 003°55'510.9
2017-Jul-28 15:30N 51°59' E 004°03'2 4.6
2017-Jul-28 15:00N 51°57' E 004°05'1 1.6
2017-Jul-28 14:30N 51°58' E 004°04'0 0.1
2017-Jul-28 14:00N 51°58' E 004°04'0 0.0
2017-Jul-28 13:30N 51°58' E 004°04'0 0.0
2017-Jul-28 13:00N 51°58' E 004°04'0 0.0
2017-Jul-28 12:30N 51°58' E 004°04'0 0.0
2017-Jul-28 12:00N 51°58' E 004°04'0 0.0
2017-Jul-28 11:30N 51°58' E 004°04'0 0.0
2017-Jul-28 11:00N 51°58' E 004°04'0 0.0
2017-Jul-28 10:30N 51°58' E 004°04'0 0.0
2017-Jul-28 10:00N 51°58' E 004°04'0 0.0
2017-Jul-28 09:30N 51°58' E 004°04'0 0.0
2017-Jul-28 09:00N 51°58' E 004°04'0 0.0
2017-Jul-28 08:30N 51°58' E 004°04'0 0.0
2017-Jul-28 08:00N 51°58' E 004°04'0 0.0
2017-Jul-28 07:30N 51°58' E 004°04'0 0.0
2017-Jul-28 07:00N 51°58' E 004°04'0 0.0
2017-Jul-28 06:30N 51°58' E 004°04'0 0.0
2017-Jul-28 06:00N 51°58' E 004°04'0 0.0
2017-Jul-28 05:30N 51°58' E 004°04'0 0.0
2017-Jul-28 05:00N 51°58' E 004°04'0 0.0
2017-Jul-28 04:30N 51°58' E 004°04'0 0.0
2017-Jul-28 04:00N 51°58' E 004°04'0 0.0
2017-Jul-28 03:30N 51°58' E 004°04'0 0.0
2017-Jul-28 03:00N 51°58' E 004°04'0 0.0
2017-Jul-28 02:30N 51°58' E 004°04'0 0.0
2017-Jul-28 02:00N 51°58' E 004°04'0 0.0
2017-Jul-28 01:30N 51°58' E 004°04'0 0.0
2017-Jul-28 01:00N 51°58' E 004°04'0 0.0
2017-Jul-28 00:30N 51°58' E 004°04'0 0.0
2017-Jul-28 00:00N 51°58' E 004°04'0 0.0
2017-Jul-27 23:30N 51°58' E 004°04'0 0.0
2017-Jul-27 23:00N 51°58' E 004°04'0 0.0
2017-Jul-27 22:30N 51°58' E 004°04'0 0.0
2017-Jul-27 22:00N 51°58' E 004°04'0 0.0
2017-Jul-27 21:30N 51°58' E 004°04'0 0.0
2017-Jul-27 21:00N 51°58' E 004°04'0 0.0
2017-Jul-27 20:30N 51°58' E 004°04'0 0.0
2017-Jul-27 20:00N 51°58' E 004°04'0 0.0
2017-Jul-27 19:30N 51°58' E 004°04'0 0.0
2017-Jul-27 19:00N 51°58' E 004°04'0 0.0
2017-Jul-27 18:30N 51°58' E 004°04'0 0.0
2017-Jul-27 18:00N 51°58' E 004°04'0 0.0
2017-Jul-27 17:30N 51°58' E 004°04'0 0.0
2017-Jul-27 17:00N 51°58' E 004°04'0 0.0
2017-Jul-27 16:30N 51°58' E 004°04'0 0.0
2017-Jul-27 16:00N 51°58' E 004°04'0 0.0
2017-Jul-27 15:30N 51°58' E 004°04'0 0.0
2017-Jul-27 15:00N 51°58' E 004°04'0 0.0
2017-Jul-27 14:00N 51°58' E 004°04'0 0.0
2017-Jul-27 13:30N 51°58' E 004°04'0 0.0
2017-Jul-27 13:00N 51°58' E 004°04'0 0.0
2017-Jul-27 12:30N 51°58' E 004°04'0 0.0
2017-Jul-27 12:00N 51°58' E 004°04'0 0.0
2017-Jul-27 11:30N 51°58' E 004°04'0 0.3
2017-Jul-27 11:00N 51°58' E 004°04'1 2.6
2017-Jul-27 10:30N 51°59' E 004°04'5 9.9
2017-Jul-27 10:00N 52°00' E 003°57'510.3
2017-Jul-27 09:30N 52°00' E 003°48'2 3.5
2017-Jul-27 09:00N 52°00' E 003°45'3 5.1
2017-Jul-27 08:30N 51°59' E 003°42'612.4
2017-Jul-27 08:00N 51°57' E 003°32'1224.2
2017-Jul-27 07:30N 51°49' E 003°17'7 9.0
2017-Jul-27 06:46N 51°43' E 003°12'517.6
2017-Jul-27 06:30N 51°38' E 003°11'816.5
2017-Jul-27 06:01N 51°31' E 003°06'713.8
2017-Jul-27 05:30N 51°25' E 003°00'815.3
2017-Jul-27 05:00N 51°24' E 003°13'815.3
2017-Jul-27 04:31N 51°25' E 003°25'612.8
2017-Jul-27 04:00N 51°25' E 003°35'4 7.9
2017-Jul-27 03:30N 51°26' E 003°41'612.5
2017-Jul-27 03:01N 51°21' E 003°48'611.5
2017-Jul-27 02:30N 51°23' E 003°57'4 7.9
2017-Jul-27 02:00N 51°25' E 004°02'5 9.9
2017-Jul-27 01:30N 51°23' E 004°09'4 8.3
2017-Jul-27 01:00N 51°21' E 004°15'3 6.0
2017-Jul-27 00:30N 51°18' E 004°16'0 0.6
2017-Jul-27 00:00N 51°18' E 004°16'0 0.0
2017-Jul-26 23:31N 51°18' E 004°16'0 0.0
2017-Jul-26 23:00N 51°18' E 004°16'0 0.0
2017-Jul-26 22:30N 51°18' E 004°16'0 0.0
2017-Jul-26 22:00N 51°18' E 004°16'0 0.0
2017-Jul-26 21:30N 51°18' E 004°16'0 0.0
2017-Jul-26 21:00N 51°18' E 004°16'0 0.0
2017-Jul-26 20:31N 51°18' E 004°16'0 0.0
2017-Jul-26 20:01N 51°18' E 004°16'0 0.0
2017-Jul-26 19:30N 51°18' E 004°16'0 0.0
2017-Jul-26 19:00N 51°18' E 004°16'0 0.0
2017-Jul-26 18:30N 51°18' E 004°16'0 0.0
2017-Jul-26 18:00N 51°18' E 004°16'0 0.0
2017-Jul-26 17:30N 51°18' E 004°16'0 0.0
2017-Jul-26 17:01N 51°18' E 004°16'0 0.0
2017-Jul-26 16:30N 51°18' E 004°16'0 0.0
2017-Jul-26 16:00N 51°18' E 004°16'0 0.0
2017-Jul-26 15:31N 51°18' E 004°16'0 0.0
2017-Jul-26 15:00N 51°18' E 004°16'0 0.0
2017-Jul-26 14:01N 51°18' E 004°16'0 0.0
2017-Jul-26 13:30N 51°18' E 004°16'0 0.0
2017-Jul-26 13:00N 51°18' E 004°16'0 0.0
2017-Jul-26 12:30N 51°18' E 004°16'0 0.0
2017-Jul-26 12:01N 51°18' E 004°16'0 0.0
2017-Jul-26 11:31N 51°18' E 004°16'0 0.0
2017-Jul-26 11:01N 51°18' E 004°16'0 0.0
2017-Jul-26 10:31N 51°18' E 004°16'0 0.0
2017-Jul-26 10:01N 51°18' E 004°16'0 0.0
2017-Jul-26 09:31N 51°18' E 004°16'0 0.0
2017-Jul-26 09:00N 51°18' E 004°16'0 0.0
2017-Jul-26 08:30N 51°18' E 004°16'0 0.0
2017-Jul-26 08:00N 51°18' E 004°16'0 0.0
2017-Jul-26 07:30N 51°18' E 004°16'0 0.0
2017-Jul-26 07:00N 51°18' E 004°16'0 0.0
2017-Jul-26 06:31N 51°18' E 004°16'0 0.0
2017-Jul-26 06:00N 51°18' E 004°16'0 0.0
2017-Jul-26 05:30N 51°18' E 004°16'0 0.0
2017-Jul-26 05:00N 51°18' E 004°16'0 0.0
2017-Jul-26 04:30N 51°18' E 004°16'0 0.0
2017-Jul-26 04:00N 51°18' E 004°16'0 0.0
2017-Jul-26 03:31N 51°18' E 004°16'0 0.0
2017-Jul-26 03:01N 51°18' E 004°16'0 0.0
2017-Jul-26 02:30N 51°18' E 004°16'0 0.0
2017-Jul-26 02:01N 51°18' E 004°16'0 0.0
2017-Jul-26 01:31N 51°18' E 004°16'0 0.0
2017-Jul-26 01:01N 51°18' E 004°16'0 0.0
2017-Jul-26 00:30N 51°18' E 004°16'0 0.0
2017-Jul-26 00:00N 51°18' E 004°16'0 0.0
2017-Jul-25 23:31N 51°18' E 004°16'0 0.0
2017-Jul-25 23:01N 51°18' E 004°16'0 0.0
2017-Jul-25 22:30N 51°18' E 004°16'0 0.0
2017-Jul-25 22:01N 51°18' E 004°16'0 0.0
2017-Jul-25 21:30N 51°18' E 004°16'0 0.0
2017-Jul-25 21:00N 51°18' E 004°16'0 0.0
2017-Jul-25 20:31N 51°18' E 004°16'0 0.0
2017-Jul-25 20:00N 51°18' E 004°16'0 0.0
2017-Jul-25 19:30N 51°18' E 004°16'0 0.0
2017-Jul-25 19:00N 51°18' E 004°16'0 0.0
2017-Jul-25 18:30N 51°18' E 004°16'0 0.0
2017-Jul-25 18:00N 51°18' E 004°16'0 0.0
2017-Jul-25 17:31N 51°18' E 004°16'0 0.0
2017-Jul-25 17:01N 51°18' E 004°16'0 0.0
2017-Jul-25 16:30N 51°18' E 004°16'0 0.0
2017-Jul-25 16:00N 51°18' E 004°16'0 0.0
2017-Jul-25 15:30N 51°18' E 004°16'0 0.0
2017-Jul-25 15:01N 51°18' E 004°16'0 0.0
2017-Jul-25 14:01N 51°18' E 004°16'0 0.0
2017-Jul-25 13:30N 51°18' E 004°16'0 0.0
2017-Jul-25 13:00N 51°18' E 004°16'0 0.0
2017-Jul-25 12:30N 51°18' E 004°16'0 0.0
2017-Jul-25 12:00N 51°18' E 004°16'0 0.0
2017-Jul-25 11:31N 51°18' E 004°16'0 0.0
2017-Jul-25 11:00N 51°18' E 004°16'0 0.0
2017-Jul-25 10:31N 51°18' E 004°16'0 0.0
2017-Jul-25 10:00N 51°18' E 004°16'0 0.0
2017-Jul-25 09:30N 51°18' E 004°16'0 0.0
2017-Jul-25 09:01N 51°18' E 004°16'0 0.0
2017-Jul-25 08:31N 51°18' E 004°16'0 0.0
2017-Jul-25 08:01N 51°18' E 004°16'0 0.0
2017-Jul-25 07:30N 51°18' E 004°16'0 0.0
2017-Jul-25 07:01N 51°18' E 004°16'0 0.0
2017-Jul-25 06:31N 51°18' E 004°16'0 0.0
2017-Jul-25 06:00N 51°18' E 004°16'0 0.0
2017-Jul-25 05:31N 51°18' E 004°16'0 0.0
2017-Jul-25 05:01N 51°18' E 004°16'0 0.0
2017-Jul-25 04:31N 51°18' E 004°16'0 0.0
2017-Jul-25 04:01N 51°18' E 004°16'0 0.0
2017-Jul-25 03:30N 51°18' E 004°16'0 0.0
2017-Jul-25 03:01N 51°18' E 004°16'0 0.0
2017-Jul-25 02:30N 51°18' E 004°16'0 0.0
2017-Jul-25 02:01N 51°18' E 004°16'0 0.0
2017-Jul-25 01:31N 51°18' E 004°16'0 0.0
2017-Jul-25 01:01N 51°18' E 004°16'0 0.0
2017-Jul-25 00:31N 51°18' E 004°16'0 0.0
2017-Jul-25 00:01N 51°18' E 004°16'0 0.0
2017-Jul-24 23:30N 51°18' E 004°16'0 0.8
2017-Jul-24 23:01N 51°18' E 004°16'2 3.9
2017-Jul-24 22:31N 51°20' E 004°16'5 9.7
2017-Jul-24 22:00N 51°24' E 004°12'611.3
2017-Jul-24 21:30N 51°23' E 004°03'4 7.2
2017-Jul-24 21:01N 51°24' E 003°58'611.5
2017-Jul-24 20:30N 51°21' E 003°51'612.5
2017-Jul-24 20:00N 51°24' E 003°43'510.1
2017-Jul-24 19:30N 51°26' E 003°35'4 8.7
2017-Jul-24 19:00N 51°25' E 003°28'713.8
2017-Jul-24 18:30N 51°24' E 003°17'714.2
2017-Jul-24 18:01N 51°24' E 003°05'5 9.7
2017-Jul-24 17:30N 51°28' E 003°01'918.5
2017-Jul-24 17:00N 51°35' E 003°10'917.5
2017-Jul-24 16:30N 51°44' E 003°14'712.9
2017-Jul-24 16:00N 51°50' E 003°17'30 8.0
2017-Jul-24 12:18N 52°18' E 003°30'0 1.3
2017-Jul-24 12:00N 52°19' E 003°30'1 1.4
2017-Jul-24 11:30N 52°19' E 003°31'1 1.6
2017-Jul-24 11:00N 52°20' E 003°32'1 1.9
2017-Jul-24 10:27N 52°21' E 003°33'1 2.0
2017-Jul-24 09:48N 52°22' E 003°34'4 0.4
2017-Jul-23 23:27N 52°20' E 003°27'7 8.4
2017-Jul-23 22:36N 52°28' E 003°28'110.9
2017-Jul-23 22:30N 52°29' E 003°28'610.9
2017-Jul-23 21:59N 52°34' E 003°30'510.3
2017-Jul-23 21:30N 52°39' E 003°33'510.7
2017-Jul-23 21:00N 52°43' E 003°38'510.5
2017-Jul-23 20:31N 52°47' E 003°44'510.3
2017-Jul-23 20:01N 52°51' E 003°49'5 9.8
2017-Jul-23 19:30N 52°55' E 003°55'510.0
2017-Jul-23 19:01N 52°58' E 004°01'510.0
2017-Jul-23 18:30N 53°01' E 004°07'5 9.6
2017-Jul-23 18:01N 53°05' E 004°13'5 9.3
2017-Jul-23 17:30N 53°08' E 004°19'4 8.5
2017-Jul-23 17:00N 53°10' E 004°24'4 8.3
2017-Jul-23 16:30N 53°14' E 004°27'4 8.2
2017-Jul-23 15:58N 53°18' E 004°30'14 8.9
2017-Jul-23 14:25N 53°30' E 004°43'9111.6
2017-Jul-23 06:30N 53°58' E 007°10'611.1
2017-Jul-23 05:55N 53°59' E 007°21'511.7
2017-Jul-23 05:31N 54°01' E 007°29'612.6
2017-Jul-23 05:00N 54°02' E 007°40'713.6
2017-Jul-23 04:30N 54°02' E 007°51'714.5
2017-Jul-23 04:00N 54°01' E 008°03'713.5
2017-Jul-23 03:30N 54°00' E 008°15'1019.1
2017-Jul-23 03:00N 53°58' E 008°31'817.2
2017-Jul-23 02:30N 53°53' E 008°42'713.4
2017-Jul-23 02:00N 53°50' E 008°53'815.7
2017-Jul-23 01:31N 53°53' E 009°05'611.0
2017-Jul-23 01:00N 53°53' E 009°15'713.4
2017-Jul-23 00:30N 53°48' E 009°23'611.4
2017-Jul-23 00:01N 53°43' E 009°28'510.7
2017-Jul-22 23:30N 53°38' E 009°32'510.3
2017-Jul-22 23:01N 53°35' E 009°38'4 7.5
2017-Jul-22 22:30N 53°34' E 009°44'3 5.3
2017-Jul-22 22:00N 53°33' E 009°48'3 5.6
2017-Jul-22 21:30N 53°33' E 009°53'1 1.3
2017-Jul-22 21:00N 53°32' E 009°54'1 1.8
2017-Jul-22 20:30N 53°32' E 009°55'0 0.0
2017-Jul-22 20:00N 53°32' E 009°55'0 0.0
2017-Jul-22 19:30N 53°32' E 009°55'0 0.0
2017-Jul-22 19:00N 53°32' E 009°55'0 0.0
2017-Jul-22 18:30N 53°32' E 009°55'0 0.0
2017-Jul-22 18:01N 53°32' E 009°55'0 0.0
2017-Jul-22 17:30N 53°32' E 009°55'0 0.0
2017-Jul-22 17:00N 53°32' E 009°55'0 0.0
2017-Jul-22 16:30N 53°32' E 009°55'0 0.0
2017-Jul-22 16:01N 53°32' E 009°55'0 0.0
2017-Jul-22 15:31N 53°32' E 009°55'0 0.0
2017-Jul-22 15:00N 53°32' E 009°55'0 0.0
2017-Jul-22 14:00N 53°32' E 009°55'0 0.0
2017-Jul-22 13:30N 53°32' E 009°55'0 0.0
2017-Jul-22 13:00N 53°32' E 009°55'0 0.0
2017-Jul-22 12:30N 53°32' E 009°55'0 0.0
2017-Jul-22 12:00N 53°32' E 009°55'0 0.0
2017-Jul-22 11:30N 53°32' E 009°55'0 0.0
2017-Jul-22 11:01N 53°32' E 009°55'0 0.0
2017-Jul-22 10:31N 53°32' E 009°55'0 0.0
2017-Jul-22 10:00N 53°32' E 009°55'0 0.0
2017-Jul-22 09:30N 53°32' E 009°55'0 0.0
2017-Jul-22 09:00N 53°32' E 009°55'0 0.0
2017-Jul-22 08:30N 53°32' E 009°55'0 0.0
2017-Jul-22 08:00N 53°32' E 009°55'0 0.0
2017-Jul-22 07:30N 53°32' E 009°55'0 0.0
2017-Jul-22 07:00N 53°32' E 009°55'0 0.0
2017-Jul-22 06:30N 53°32' E 009°55'0 0.0
2017-Jul-22 06:00N 53°32' E 009°55'0 0.0
2017-Jul-22 05:31N 53°32' E 009°55'0 0.0
2017-Jul-22 05:00N 53°32' E 009°55'0 0.0
2017-Jul-22 04:31N 53°32' E 009°55'0 0.0
2017-Jul-22 04:00N 53°32' E 009°55'0 0.0
2017-Jul-22 03:31N 53°32' E 009°55'0 0.0
2017-Jul-22 03:00N 53°32' E 009°55'0 0.0
2017-Jul-22 02:30N 53°32' E 009°55'0 0.0
2017-Jul-22 02:00N 53°32' E 009°55'0 0.0
2017-Jul-22 01:30N 53°32' E 009°55'0 0.0
2017-Jul-22 01:01N 53°32' E 009°55'0 0.0
2017-Jul-22 00:30N 53°32' E 009°55'0 0.0
2017-Jul-22 00:00N 53°32' E 009°55'0 0.0
2017-Jul-21 23:30N 53°32' E 009°55'0 0.0
2017-Jul-21 23:00N 53°32' E 009°55'0 0.0
2017-Jul-21 22:30N 53°32' E 009°55'0 0.0
2017-Jul-21 22:00N 53°32' E 009°55'0 0.0
2017-Jul-21 21:31N 53°32' E 009°55'0 0.0
2017-Jul-21 21:00N 53°32' E 009°55'0 0.0
2017-Jul-21 20:30N 53°32' E 009°55'0 0.0
2017-Jul-21 20:01N 53°32' E 009°55'0 0.0
2017-Jul-21 19:30N 53°32' E 009°55'0 0.0
2017-Jul-21 19:01N 53°32' E 009°55'0 0.0
2017-Jul-21 18:31N 53°32' E 009°55'0 0.0
2017-Jul-21 18:00N 53°32' E 009°55'0 0.0
2017-Jul-21 17:30N 53°32' E 009°55'0 0.0
2017-Jul-21 17:01N 53°32' E 009°55'0 0.0
2017-Jul-21 16:30N 53°32' E 009°55'0 0.0
2017-Jul-21 16:00N 53°32' E 009°55'0 0.0
2017-Jul-21 15:30N 53°32' E 009°55'0 0.0
2017-Jul-21 15:00N 53°32' E 009°55'0 0.0
2017-Jul-21 14:30N 53°32' E 009°55'0 0.0
2017-Jul-21 14:00N 53°32' E 009°55'0 0.0
2017-Jul-21 13:30N 53°32' E 009°55'1 1.7
2017-Jul-21 13:00N 53°32' E 009°54'2 4.8
2017-Jul-21 12:31N 53°33' E 009°50'5 9.8
2017-Jul-21 12:00N 53°34' E 009°42'611.3
2017-Jul-21 11:30N 53°37' E 009°34'612.4
2017-Jul-21 11:00N 53°42' E 009°29'714.5
2017-Jul-21 10:31N 53°48' E 009°22'815.8
2017-Jul-21 10:00N 53°53' E 009°12'611.5
2017-Jul-21 09:30N 53°52' E 009°02'917.6
2017-Jul-21 09:00N 53°50' E 008°47'815.5
2017-Jul-21 08:30N 53°56' E 008°39'917.6
2017-Jul-21 08:00N 53°59' E 008°25'1017.1
2017-Jul-21 07:24N 53°59' E 008°07'614.6
2017-Jul-21 07:00N 53°58' E 007°57'510.0
2017-Jul-21 06:30N 53°57' E 007°49'610.7
2017-Jul-21 05:59N 53°56' E 007°40'712.2
2017-Jul-21 05:23N 53°54' E 007°27'813.6
2017-Jul-21 04:47N 53°53' E 007°14'7413.7
2017-Jul-20 23:23N 53°32' E 005°14'513.3
2017-Jul-20 23:00N 53°30' E 005°06'713.3
2017-Jul-20 22:30N 53°28' E 004°56'2112.5
2017-Jul-20 20:49N 53°13' E 004°32'413.3
2017-Jul-20 20:30N 53°09' E 004°29'713.8
2017-Jul-20 20:00N 53°03' E 004°23'713.6
2017-Jul-20 19:30N 52°56' E 004°19'713.6
2017-Jul-20 18:58N 52°50' E 004°14'613.5
2017-Jul-20 18:30N 52°45' E 004°08'612.0
2017-Jul-20 18:00N 52°41' E 004°01'711.9
2017-Jul-20 17:26N 52°36' E 003°53'511.9
2017-Jul-20 17:00N 52°32' E 003°47'612.1
2017-Jul-20 16:29N 52°28' E 003°40'6612.7
2017-Jul-20 11:17N 51°53' E 002°08'414.3
2017-Jul-20 11:00N 51°51' E 002°02'815.8
2017-Jul-20 10:30N 51°49' E 001°50'713.5
2017-Jul-20 10:00N 51°51' E 001°40'4 8.3
2017-Jul-20 09:30N 51°52' E 001°34'611.7
2017-Jul-20 09:00N 51°56' E 001°26'510.0
2017-Jul-20 08:30N 51°57' E 001°18'1 2.2
2017-Jul-20 08:00N 51°58' E 001°17'0 0.0
2017-Jul-20 07:30N 51°58' E 001°17'0 0.0
2017-Jul-20 07:00N 51°58' E 001°17'0 0.0
2017-Jul-20 06:30N 51°58' E 001°17'0 0.0
2017-Jul-20 06:00N 51°58' E 001°17'0 0.0
2017-Jul-20 05:30N 51°58' E 001°17'0 0.0
2017-Jul-20 05:00N 51°58' E 001°17'0 0.0
2017-Jul-20 04:30N 51°58' E 001°17'0 0.0
2017-Jul-20 04:00N 51°58' E 001°17'0 0.0
2017-Jul-20 03:30N 51°58' E 001°17'0 0.0
2017-Jul-20 03:00N 51°58' E 001°17'0 0.0
2017-Jul-20 02:30N 51°58' E 001°17'0 0.0
2017-Jul-20 02:00N 51°58' E 001°17'0 0.0
2017-Jul-20 01:30N 51°58' E 001°17'0 0.0
2017-Jul-20 01:00N 51°58' E 001°17'0 0.0
2017-Jul-20 00:30N 51°58' E 001°17'0 0.0
2017-Jul-20 00:00N 51°58' E 001°17'0 0.0
2017-Jul-19 23:30N 51°58' E 001°17'0 0.0
2017-Jul-19 23:00N 51°58' E 001°17'0 0.0
2017-Jul-19 22:30N 51°58' E 001°17'0 0.0
2017-Jul-19 22:00N 51°58' E 001°17'0 0.0
2017-Jul-19 21:30N 51°58' E 001°17'0 0.0
2017-Jul-19 21:00N 51°58' E 001°17'0 0.0
2017-Jul-19 20:30N 51°58' E 001°17'0 0.0
2017-Jul-19 20:00N 51°58' E 001°17'0 0.0
2017-Jul-19 19:30N 51°58' E 001°17'0 0.0
2017-Jul-19 19:00N 51°58' E 001°17'0 0.0
2017-Jul-19 18:30N 51°58' E 001°17'0 0.0
2017-Jul-19 18:00N 51°58' E 001°17'0 0.0
2017-Jul-19 17:30N 51°58' E 001°17'0 0.0
2017-Jul-19 17:00N 51°58' E 001°17'1 1.0
2017-Jul-19 16:30N 51°57' E 001°18'1 2.2
2017-Jul-19 16:00N 51°56' E 001°19'5 9.2
2017-Jul-19 15:30N 51°56' E 001°26'510.6
2017-Jul-19 15:00N 51°53' E 001°34'5 9.2
2017-Jul-19 14:30N 51°52' E 001°40'4 8.5
2017-Jul-19 14:00N 51°52' E 001°47'0 0.5
2017-Jul-19 13:29N 51°52' E 001°47'2 5.0
2017-Jul-19 13:00N 51°50' E 001°47'4 7.6
2017-Jul-19 12:30N 51°46' E 001°48'4 7.8
2017-Jul-19 12:00N 51°42' E 001°49'5 9.8
2017-Jul-19 11:30N 51°37' E 001°50'611.8
2017-Jul-19 11:00N 51°32' E 001°52'713.4
2017-Jul-19 10:30N 51°27' E 002°00'713.2
2017-Jul-19 10:00N 51°21' E 001°59'919.0
2017-Jul-19 09:30N 51°14' E 001°49'1019.8
2017-Jul-19 09:00N 51°05' E 001°40'1020.4
2017-Jul-19 08:30N 50°58' E 001°29'1020.1
2017-Jul-19 08:00N 50°48' E 001°24'1019.1
2017-Jul-19 07:30N 50°40' E 001°15'1020.0
2017-Jul-19 07:00N 50°33' E 001°04'1119.7
2017-Jul-19 06:28N 50°29' E 000°49'1019.9
2017-Jul-19 05:59N 50°26' E 000°35'1019.9
2017-Jul-19 05:30N 50°23' E 000°21'1020.2
2017-Jul-19 05:00N 50°19' E 000°06'1020.8
2017-Jul-19 04:30N 50°17' W 000°10'1020.6
2017-Jul-19 04:00N 50°16' W 000°26'1121.1
2017-Jul-19 03:30N 50°13' W 000°42'1121.0
2017-Jul-19 03:00N 50°10' W 000°58'1121.0
2017-Jul-19 02:29N 50°08' W 001°15'1020.8
2017-Jul-19 02:01N 50°05' W 001°29'1020.3
2017-Jul-19 01:31N 50°02' W 001°44'1019.9
2017-Jul-19 01:00N 49°59' W 001°59'1019.1
2017-Jul-19 00:29N 49°57' W 002°14'918.6
2017-Jul-19 00:00N 49°55' W 002°28'918.2
2017-Jul-18 23:30N 49°52' W 002°41'918.1
2017-Jul-18 23:00N 49°49' W 002°55'917.6
2017-Jul-18 22:30N 49°45' W 003°07'917.5
2017-Jul-18 22:00N 49°41' W 003°18'918.0
2017-Jul-18 21:30N 49°36' W 003°30'918.3
2017-Jul-18 21:00N 49°32' W 003°43'918.5
2017-Jul-18 20:30N 49°27' W 003°55'918.3
2017-Jul-18 20:00N 49°22' W 004°07'918.1
2017-Jul-18 19:30N 49°18' W 004°19'918.1
2017-Jul-18 19:00N 49°13' W 004°31'918.4
2017-Jul-18 18:30N 49°08' W 004°43'918.2
2017-Jul-18 18:00N 49°03' W 004°54'918.0
2017-Jul-18 17:30N 48°58' W 005°06'917.9
2017-Jul-18 17:00N 48°53' W 005°17'  

Dump ship's entire track history